Time;durP1;ratioP1;P1;durP2;ratioP2;P2;SDS_P1;SDS_P2;PMS_P1;PMS_P2;Temp;Humidity;BMP_temperature;BMP_pressure;BME280_temperature;BME280_humidity;BME280_pressure;Samples;Min_cycle;Max_cycle;Signal;HPM_P1;HPM_P2
2021/05/13 00:01:21;;;;;;;6.00;2.17;;;;;;;10.51;76.95;99842.81;5070491;28;20042;-72
2021/05/13 00:03:48;;;;;;;2.85;2.17;;;;;;;10.51;77.10;99841.03;5066293;28;20032;-72
2021/05/13 00:06:14;;;;;;;4.60;1.90;;;;;;;10.48;77.01;99845.81;5083083;28;20119;-72
2021/05/13 00:08:39;;;;;;;3.88;1.58;;;;;;;10.45;78.56;99840.88;5070367;28;20123;-72
2021/05/13 00:11:05;;;;;;;2.53;1.70;;;;;;;10.43;77.53;99841.03;5085161;28;20036;-72
2021/05/13 00:13:33;;;;;;;2.47;1.40;;;;;;;10.33;80.36;99843.03;5088459;28;20357;-72
2021/05/13 00:15:59;;;;;;;3.40;1.83;;;;;;;10.33;78.17;99845.69;5088537;28;20036;-72
2021/05/13 00:18:26;;;;;;;2.47;1.48;;;;;;;10.34;78.40;99837.56;5088061;28;20393;-72
2021/05/13 00:20:52;;;;;;;2.90;1.60;;;;;;;10.37;77.69;99834.59;5088494;28;20036;-72
2021/05/13 00:23:17;;;;;;;2.17;1.77;;;;;;;10.34;79.44;99832.28;5080918;28;20085;-72
2021/05/13 00:25:43;;;;;;;4.35;2.17;;;;;;;10.37;77.34;99836.44;5081861;28;20446;-72
2021/05/13 00:28:09;;;;;;;4.45;2.33;;;;;;;10.39;77.23;99826.50;5070531;28;20024;-72
2021/05/13 00:30:35;;;;;;;4.60;2.45;;;;;;;10.41;77.20;99822.69;5076120;28;20032;-73
2021/05/13 00:33:00;;;;;;;2.90;1.80;;;;;;;10.38;77.23;99825.66;5067440;28;20259;-72
2021/05/13 00:35:25;;;;;;;5.78;1.92;;;;;;;10.38;77.67;99825.66;5088783;28;20036;-72
2021/05/13 00:37:51;;;;;;;4.03;1.58;;;;;;;10.35;77.84;99815.44;5072805;28;20039;-72
2021/05/13 00:40:18;;;;;;;2.72;1.67;;;;;;;10.36;78.41;99818.91;5074359;28;20071;-73
2021/05/13 00:42:43;;;;;;;3.33;1.67;;;;;;;10.33;78.10;99820.06;5093191;28;20028;-72
2021/05/13 00:45:11;;;;;;;2.00;1.30;;;;;;;10.30;79.32;99815.13;5092243;28;20038;-72
2021/05/13 00:47:43;;;;;;;2.72;1.80;;;;;;;10.33;79.09;99814.78;5093554;28;20097;-72
2021/05/13 00:50:10;;;;;;;2.17;1.50;;;;;;;10.24;79.65;99814.94;5072190;28;20079;-72
2021/05/13 00:52:35;;;;;;;2.83;1.67;;;;;;;10.11;80.65;99808.34;5093721;28;20028;-72
2021/05/13 00:55:00;;;;;;;2.33;1.58;;;;;;;10.05;80.44;99806.34;5087718;28;20032;-72
2021/05/13 00:57:26;;;;;;;2.50;1.70;;;;;;;9.96;80.68;99810.84;5076237;28;20036;-72
2021/05/13 00:59:56;;;;;;;3.97;1.80;;;;;;;9.90;81.01;99806.19;5078963;28;20207;-72
2021/05/13 01:02:21;;;;;;;2.50;1.60;;;;;;;9.88;80.86;99808.19;5093238;28;20039;-72
2021/05/13 01:04:46;;;;;;;2.83;1.65;;;;;;;9.86;81.01;99810.16;5076931;28;20032;-72
2021/05/13 01:07:12;;;;;;;2.10;1.27;;;;;;;9.85;81.43;99815.63;5094519;28;20103;-72
2021/05/13 01:09:37;;;;;;;2.22;1.33;;;;;;;9.86;81.41;99809.34;5090261;28;20032;-73
2021/05/13 01:12:09;;;;;;;2.33;1.65;;;;;;;9.82;81.97;99811.50;5089817;28;20515;-72
2021/05/13 01:19:50;;;;;;;2.25;1.60;;;;;;;9.76;82.08;99814.78;5092029;28;20085;-72
2021/05/13 01:22:18;;;;;;;2.63;1.55;;;;;;;9.74;81.98;99812.28;5089709;28;20044;-73
2021/05/13 01:24:44;;;;;;;2.70;1.98;;;;;;;9.76;80.74;99817.41;5089799;28;20081;-72
2021/05/13 01:27:09;;;;;;;3.60;2.00;;;;;;;9.76;80.63;99820.06;5092265;28;20024;-72
2021/05/13 01:29:36;;;;;;;3.30;2.00;;;;;;;9.70;81.22;99823.34;5076073;28;20085;-72
2021/05/13 01:32:03;;;;;;;3.13;1.80;;;;;;;9.68;81.88;99820.06;5088178;28;20496;-73
2021/05/13 01:34:28;;;;;;;3.30;2.00;;;;;;;9.66;82.73;99816.75;5090716;28;20524;-72
2021/05/13 01:36:53;;;;;;;2.55;1.75;;;;;;;9.59;81.79;99824.50;5075413;28;20040;-72
2021/05/13 01:39:19;;;;;;;2.75;2.10;;;;;;;9.48;82.39;99812.41;5093405;28;20036;-73
2021/05/13 01:41:45;;;;;;;2.67;1.98;;;;;;;9.44;83.12;99815.53;5091617;28;20039;-72
2021/05/13 01:44:11;;;;;;;2.40;1.90;;;;;;;9.48;83.30;99814.25;5071847;28;20420;-72
2021/05/13 01:46:38;;;;;;;2.95;2.30;;;;;;;9.45;81.90;99814.56;5092696;28;20059;-72
2021/05/13 01:49:04;;;;;;;2.97;2.40;;;;;;;9.36;83.15;99811.06;5074318;28;20514;-72
2021/05/13 01:51:31;;;;;;;2.72;2.00;;;;;;;9.29;82.50;99808.25;5086499;28;20032;-72
2021/05/13 01:53:56;;;;;;;3.28;2.20;;;;;;;9.20;82.81;99811.88;5087754;28;20028;-72
2021/05/13 01:56:22;;;;;;;3.60;2.38;;;;;;;9.11;83.00;99811.00;5071196;28;20414;-72
2021/05/13 01:58:47;;;;;;;3.47;2.20;;;;;;;9.07;84.46;99807.03;5088438;28;20044;-72
2021/05/13 02:01:14;;;;;;;3.45;2.33;;;;;;;9.04;84.49;99819.72;5080007;28;20083;-72
2021/05/13 02:03:42;;;;;;;2.53;2.17;;;;;;;8.99;84.06;99816.75;5082878;28;20028;-72
2021/05/13 02:06:08;;;;;;;2.85;2.17;;;;;;;8.93;84.28;99811.09;5064587;28;20032;-73
2021/05/13 02:08:34;;;;;;;3.30;2.38;;;;;;;8.93;84.98;99818.19;5068914;28;20059;-72
2021/05/13 02:10:59;;;;;;;3.38;2.08;;;;;;;8.93;84.01;99815.56;5088962;28;20112;-72
2021/05/13 02:13:27;;;;;;;3.45;2.10;;;;;;;8.90;84.81;99816.69;5069026;28;20048;-72
2021/05/13 02:15:53;;;;;;;3.25;2.00;;;;;;;8.94;83.60;99814.59;5091382;28;20034;-72
2021/05/13 02:18:21;;;;;;;2.40;1.70;;;;;;;9.00;83.75;99810.47;5069748;28;20032;-72
2021/05/13 02:20:47;;;;;;;4.05;2.22;;;;;;;9.03;83.16;99812.78;5072990;28;20040;-72
2021/05/13 02:23:13;;;;;;;3.30;2.20;;;;;;;9.04;84.26;99804.72;5089980;28;20469;-72
2021/05/13 02:25:39;;;;;;;3.38;2.15;;;;;;;9.04;84.55;99802.09;5090622;28;20073;-72
2021/05/13 02:28:05;;;;;;;3.17;2.00;;;;;;;9.03;85.08;99810.16;5089688;28;20496;-72
2021/05/13 02:30:30;;;;;;;4.25;2.20;;;;;;;9.10;82.39;99797.97;5089465;28;20032;-72
2021/05/13 02:32:56;;;;;;;4.72;2.83;;;;;;;9.11;82.32;99795.19;5066111;28;20501;-72
2021/05/13 02:35:21;;;;;;;2.67;2.00;;;;;;;9.10;81.92;99784.78;5089457;28;20036;-72
2021/05/13 02:37:48;;;;;;;4.38;2.40;;;;;;;9.12;82.22;99783.63;5090494;28;20079;-72
2021/05/13 02:40:15;;;;;;;3.33;2.05;;;;;;;9.03;83.43;99781.16;5083820;28;20028;-72
2021/05/13 02:42:42;;;;;;;3.38;1.85;;;;;;;9.02;83.50;99777.69;5072506;28;20028;-72
2021/05/13 02:45:08;;;;;;;2.65;1.70;;;;;;;9.02;82.96;99776.88;5088723;28;20029;-72
2021/05/13 02:47:34;;;;;;;1.80;1.40;;;;;;;9.00;83.83;99778.84;5081689;28;20438;-72
2021/05/13 02:49:59;;;;;;;4.57;1.83;;;;;;;9.03;81.80;99770.59;5082844;28;20039;-72
2021/05/13 02:52:25;;;;;;;2.40;1.75;;;;;;;8.98;82.68;99775.53;5071946;28;20035;-73
2021/05/13 02:54:50;;;;;;;2.95;1.90;;;;;;;8.91;83.12;99775.34;5090353;28;20032;-72
2021/05/13 02:57:15;;;;;;;3.75;2.20;;;;;;;8.91;84.78;99772.69;5088948;28;20105;-72
2021/05/13 02:59:50;;;;;;;3.38;1.90;;;;;;;8.87;83.45;99766.94;5072041;28;20050;-72
2021/05/13 03:02:16;;;;;;;2.60;2.20;;;;;;;8.77;84.07;99770.66;5068617;28;20025;-73
2021/05/13 03:04:42;;;;;;;3.45;2.00;;;;;;;8.69;84.31;99771.47;5087265;28;20059;-72
2021/05/13 03:07:08;;;;;;;2.70;2.13;;;;;;;8.65;84.20;99775.41;5090221;28;20073;-72
2021/05/13 03:09:53;;;;;;;3.88;2.40;;;;;;;8.59;85.21;99782.13;5081723;28;20507;-72
2021/05/13 03:12:18;;;;;;;2.67;1.83;;;;;;;8.55;84.95;99770.25;5071259;28;20531;-73
2021/05/13 03:14:45;;;;;;;3.00;2.13;;;;;;;8.53;85.24;99768.75;5088931;28;20032;-72
2021/05/13 03:17:10;;;;;;;3.42;2.10;;;;;;;8.49;85.05;99760.34;5088381;28;20044;-72
2021/05/13 03:19:57;;;;;;;3.63;2.35;;;;;;;8.46;86.17;99758.00;5089912;28;20390;-72
2021/05/13 03:22:23;;;;;;;3.33;2.20;;;;;;;8.45;86.62;99751.91;5087280;28;20520;-72
2021/05/13 03:24:54;;;;;;;2.47;1.90;;;;;;;8.47;86.07;99764.94;5089152;28;20040;-72
2021/05/13 03:29:53;;;;;;;3.08;2.20;;;;;;;8.55;86.15;99761.50;5088996;28;20032;-72
2021/05/13 03:32:18;;;;;;;3.30;1.80;;;;;;;8.66;84.27;99771.78;5089137;28;20399;-72
2021/05/13 03:34:43;;;;;;;2.63;2.00;;;;;;;8.64;83.90;99771.94;5064514;28;20024;-72
2021/05/13 03:37:09;;;;;;;2.75;1.77;;;;;;;8.66;84.71;99763.88;5072080;28;20078;-72
2021/05/13 03:39:34;;;;;;;2.85;1.80;;;;;;;8.66;84.44;99772.59;5089174;28;20036;-72
2021/05/13 03:41:59;;;;;;;3.78;2.22;;;;;;;8.64;84.79;99771.94;5085486;28;20305;-72
2021/05/13 03:44:24;;;;;;;3.00;2.00;;;;;;;8.59;84.79;99763.69;5087718;28;20536;-72
2021/05/13 03:46:50;;;;;;;4.45;2.30;;;;;;;8.53;85.17;99753.75;5087925;28;20463;-72
2021/05/13 03:49:15;;;;;;;3.88;2.30;;;;;;;8.47;84.84;99752.59;5088703;28;20096;-72
2021/05/13 03:51:40;;;;;;;3.65;2.20;;;;;;;8.41;84.68;99747.94;5089682;28;20036;-73
2021/05/13 03:54:06;;;;;;;3.30;1.90;;;;;;;8.41;85.92;99755.03;5070803;28;20416;-73
2021/05/13 03:56:31;;;;;;;3.97;2.40;;;;;;;8.38;85.05;99757.94;5087733;28;20030;-72
2021/05/13 03:59:10;;;;;;;4.45;2.28;;;;;;;8.33;85.31;99749.69;5089050;28;20029;-72
2021/05/13 04:02:01;;;;;;;5.32;2.30;;;;;;;8.31;86.90;99755.09;5085376;28;20028;-72
2021/05/13 04:04:26;;;;;;;3.22;2.08;;;;;;;8.34;86.82;99761.88;5089742;28;20136;-72
2021/05/13 04:06:51;;;;;;;3.90;2.20;;;;;;;8.35;87.30;99758.25;5089379;28;20032;-72
2021/05/13 04:09:17;;;;;;;3.03;2.20;;;;;;;8.45;87.12;99769.53;5082031;28;20036;-72
2021/05/13 04:11:42;;;;;;;2.45;1.90;;;;;;;8.55;84.82;99764.97;5088654;28;20492;-72
2021/05/13 04:14:11;;;;;;;1.90;1.23;;;;;;;8.61;84.37;99768.81;5078607;28;20262;-73
2021/05/13 04:16:39;;;;;;;4.20;2.30;;;;;;;8.65;86.51;99763.06;5089280;28;20028;-72
2021/05/13 04:19:04;;;;;;;2.92;2.10;;;;;;;8.63;84.60;99761.56;5085713;28;20074;-73
2021/05/13 04:21:30;;;;;;;3.55;2.47;;;;;;;8.60;84.99;99756.59;5088351;28;20032;-72
2021/05/13 04:23:56;;;;;;;3.05;1.90;;;;;;;8.67;85.37;99755.81;5087236;28;20032;-72
2021/05/13 04:26:21;;;;;;;2.85;1.90;;;;;;;8.77;84.99;99757.50;5087824;28;20269;-72
2021/05/13 04:28:47;;;;;;;3.80;1.95;;;;;;;8.86;84.87;99756.53;5087654;28;20032;-72
2021/05/13 04:31:12;;;;;;;2.85;2.13;;;;;;;8.95;84.70;99760.84;5086303;28;20060;-72
2021/05/13 04:33:37;;;;;;;2.80;2.20;;;;;;;9.01;84.55;99752.31;5084496;28;20135;-72
2021/05/13 04:36:03;;;;;;;3.38;2.20;;;;;;;9.05;84.58;99753.63;5078810;28;20032;-73
2021/05/13 04:38:30;;;;;;;2.67;2.08;;;;;;;9.10;84.22;99756.59;5085335;28;20097;-72
2021/05/13 04:40:55;;;;;;;2.20;1.77;;;;;;;9.13;83.78;99758.94;5084678;28;20032;-72
2021/05/13 04:43:20;;;;;;;2.92;2.10;;;;;;;9.20;84.71;99756.47;5070285;28;20051;-73
2021/05/13 04:45:47;;;;;;;2.97;2.08;;;;;;;9.29;84.44;99754.66;5087809;28;20044;-72
2021/05/13 04:48:16;;;;;;;3.75;2.25;;;;;;;9.29;84.53;99752.84;5087837;28;20115;-73
2021/05/13 04:50:41;;;;;;;3.85;2.30;;;;;;;9.31;82.84;99757.97;5086865;28;20115;-72
2021/05/13 04:53:10;;;;;;;4.60;2.15;;;;;;;9.35;83.84;99757.50;5087995;28;20120;-72
2021/05/13 04:55:38;;;;;;;3.42;2.20;;;;;;;9.54;82.88;99755.53;5080435;28;20032;-72
2021/05/13 04:58:03;;;;;;;3.63;2.25;;;;;;;9.71;81.71;99748.44;5088255;28;20075;-72
2021/05/13 05:00:29;;;;;;;2.60;1.80;;;;;;;9.65;81.76;99742.00;5067395;28;20443;-72
2021/05/13 05:02:54;;;;;;;2.95;1.70;;;;;;;9.66;82.09;99742.84;5083061;28;20032;-72
2021/05/13 05:05:19;;;;;;;1.95;1.60;;;;;;;9.64;82.88;99735.06;5087902;28;20405;-72
2021/05/13 05:07:45;;;;;;;3.35;1.60;;;;;;;9.64;83.53;99745.63;5087247;28;20081;-72
2021/05/13 05:10:10;;;;;;;2.65;1.70;;;;;;;9.68;82.92;99748.78;5085143;28;20055;-72
2021/05/13 05:12:36;;;;;;;2.70;1.60;;;;;;;9.73;82.67;99738.56;5071644;28;20111;-73
2021/05/13 05:15:01;;;;;;;1.92;1.40;;;;;;;9.70;82.68;99739.72;5087893;28;20420;-73
2021/05/13 05:17:27;;;;;;;2.45;1.38;;;;;;;9.69;82.54;99739.88;5089458;28;20051;-73
2021/05/13 05:19:52;;;;;;;1.83;1.30;;;;;;;9.69;82.47;99745.97;5085990;28;20044;-73
2021/05/13 05:22:17;;;;;;;2.80;1.17;;;;;;;9.71;81.65;99741.34;5083874;28;20032;-73
2021/05/13 05:24:43;;;;;;;1.70;1.30;;;;;;;9.80;81.64;99744.81;5093123;28;20028;-73
2021/05/13 05:27:08;;;;;;;2.25;1.30;;;;;;;9.91;81.84;99735.72;5093675;28;20115;-73
2021/05/13 05:29:33;;;;;;;2.38;1.50;;;;;;;9.94;81.05;99736.22;5091881;28;20545;-73
2021/05/13 05:31:59;;;;;;;1.77;1.20;;;;;;;10.05;81.11;99734.22;5090518;28;20491;-73
2021/05/13 05:34:24;;;;;;;4.93;1.88;;;;;;;10.26;80.77;99734.50;5089040;28;20477;-73
2021/05/13 05:36:49;;;;;;;1.98;1.40;;;;;;;10.35;81.47;99732.69;5092811;28;20028;-73
2021/05/13 05:39:15;;;;;;;2.30;1.20;;;;;;;10.49;81.15;99732.00;5090752;28;20036;-73
2021/05/13 05:41:40;;;;;;;4.00;1.50;;;;;;;10.53;79.92;99733.28;5088909;28;20059;-73
2021/05/13 05:44:06;;;;;;;1.42;1.00;;;;;;;10.61;79.96;99732.44;5089020;28;20024;-73
2021/05/13 05:46:32;;;;;;;1.83;1.10;;;;;;;10.71;79.89;99729.59;5066382;28;20036;-73
2021/05/13 05:48:57;;;;;;;1.90;1.30;;;;;;;10.89;79.46;99740.72;5088206;28;20028;-73
2021/05/13 05:51:22;;;;;;;1.50;0.93;;;;;;;10.93;79.62;99725.34;5090478;28;20123;-73
2021/05/13 05:53:48;;;;;;;2.60;1.10;;;;;;;11.08;79.20;99725.41;5087021;28;20210;-73
2021/05/13 05:56:13;;;;;;;1.98;1.17;;;;;;;11.15;78.90;99723.72;5069985;28;20039;-73
2021/05/13 05:58:39;;;;;;;2.05;1.00;;;;;;;11.22;79.35;99722.03;5089949;28;20040;-73
2021/05/13 06:01:04;;;;;;;1.33;1.00;;;;;;;11.31;78.14;99725.44;5084689;28;20078;-73
2021/05/13 06:03:29;;;;;;;1.30;0.93;;;;;;;11.45;78.36;99728.16;5074075;28;20028;-74
2021/05/13 06:05:54;;;;;;;2.70;1.20;;;;;;;11.62;78.42;99718.25;5085534;28;20037;-73
2021/05/13 06:08:20;;;;;;;2.63;1.33;;;;;;;11.74;77.83;99726.59;5084989;28;21619;-73
2021/05/13 06:10:45;;;;;;;1.77;1.17;;;;;;;11.87;77.90;99721.53;5090048;28;20489;-73
2021/05/13 06:13:11;;;;;;;2.30;1.50;;;;;;;12.00;75.71;99723.56;5085892;28;20101;-73
2021/05/13 06:15:37;;;;;;;4.32;2.40;;;;;;;12.11;77.04;99717.84;5066596;28;20496;-73
2021/05/13 06:18:03;;;;;;;4.05;2.53;;;;;;;12.07;77.06;99724.50;5085901;28;20064;-73
2021/05/13 06:20:31;;;;;;;3.47;2.75;;;;;;;11.96;76.27;99722.28;5090867;28;20039;-74
2021/05/13 06:22:56;;;;;;;3.17;2.05;;;;;;;12.14;76.93;99726.44;5091900;28;20035;-74
2021/05/13 06:25:24;;;;;;;3.08;2.17;;;;;;;12.22;76.69;99716.53;5092654;28;20275;-75
2021/05/13 06:27:50;;;;;;;3.88;2.83;;;;;;;12.29;76.68;99711.34;5074080;28;20024;-74
2021/05/13 06:30:17;;;;;;;4.13;2.85;;;;;;;12.29;75.81;99720.09;5092132;28;20039;-74
2021/05/13 06:32:44;;;;;;;2.75;1.88;;;;;;;12.21;75.89;99711.44;5073458;28;20119;-75
2021/05/13 06:35:10;;;;;;;4.22;2.38;;;;;;;12.21;75.80;99714.91;5083444;28;20031;-74
2021/05/13 06:37:35;;;;;;;2.25;1.85;;;;;;;12.33;74.77;99712.63;5086862;28;20055;-74
2021/05/13 06:40:01;;;;;;;2.60;1.70;;;;;;;12.52;75.17;99713.91;5090245;28;20447;-76
2021/05/13 06:42:26;;;;;;;3.20;1.60;;;;;;;12.77;75.57;99717.06;5091574;28;20215;-73
2021/05/13 06:44:52;;;;;;;4.47;2.42;;;;;;;13.00;74.82;99721.41;5075742;28;20095;-72
2021/05/13 06:47:18;;;;;;;3.15;2.13;;;;;;;13.06;73.02;99731.25;5074746;28;20039;-73
2021/05/13 06:49:43;;;;;;;4.57;3.00;;;;;;;13.53;72.27;99717.47;5089473;28;20492;-73
2021/05/13 06:52:08;;;;;;;6.00;2.40;;;;;;;13.69;70.86;99724.34;5092213;28;20038;-73
2021/05/13 06:54:34;;;;;;;3.90;2.30;;;;;;;13.59;71.02;99719.38;5091570;28;20051;-73
2021/05/13 06:56:59;;;;;;;2.75;1.88;;;;;;;13.70;71.25;99712.69;5092182;28;20058;-73
2021/05/13 06:59:26;;;;;;;2.63;1.90;;;;;;;13.97;69.54;99711.09;5081475;28;20509;-73
2021/05/13 07:01:54;;;;;;;2.42;1.73;;;;;;;14.28;71.38;99720.50;5095433;28;20036;-73
2021/05/13 07:04:22;;;;;;;3.08;1.95;;;;;;;14.49;69.83;99716.09;5070713;28;20065;-73
2021/05/13 07:06:48;;;;;;;3.35;2.17;;;;;;;14.56;69.02;99720.47;5075256;28;20394;-73
2021/05/13 07:09:13;;;;;;;3.92;2.53;;;;;;;14.69;68.67;99724.22;5076459;28;20035;-73
2021/05/13 07:11:39;;;;;;;3.58;2.20;;;;;;;14.42;67.90;99721.38;5092435;28;20035;-73
2021/05/13 07:14:04;;;;;;;3.15;2.15;;;;;;;14.54;69.13;99724.31;5088866;28;20032;-73
2021/05/13 07:16:30;;;;;;;4.75;2.40;;;;;;;14.56;66.71;99724.94;5089359;28;20131;-73
2021/05/13 07:18:56;;;;;;;4.65;2.60;;;;;;;15.01;67.87;99714.69;5069518;28;20051;-73
2021/05/13 07:21:22;;;;;;;4.30;2.72;;;;;;;15.46;66.69;99715.78;5074372;28;20080;-72
2021/05/13 07:23:47;;;;;;;3.85;2.58;;;;;;;15.89;64.93;99719.94;5092064;28;20484;-72
2021/05/13 07:26:13;;;;;;;4.43;2.45;;;;;;;16.53;64.07;99715.72;5090869;28;20107;-73
2021/05/13 07:28:40;;;;;;;2.88;1.83;;;;;;;17.37;63.43;99716.53;5067997;28;20528;-73
2021/05/13 07:31:06;;;;;;;5.32;2.70;;;;;;;17.63;58.45;99702.97;5074018;28;20035;-72
2021/05/13 07:33:32;;;;;;;4.70;2.92;;;;;;;17.82;56.64;99701.19;5092894;28;20541;-72
2021/05/13 07:35:57;;;;;;;3.25;2.35;;;;;;;18.35;56.61;99707.91;5091852;28;20146;-72
2021/05/13 07:38:23;;;;;;;5.85;2.33;;;;;;;19.29;57.92;99708.34;5071239;28;20035;-73
2021/05/13 07:40:49;;;;;;;4.18;2.20;;;;;;;19.89;51.98;99711.97;5088207;28;20047;-73
2021/05/13 07:43:14;;;;;;;3.25;2.00;;;;;;;20.54;55.89;99719.03;5092161;28;20031;-73
2021/05/13 07:45:43;;;;;;;3.70;1.83;;;;;;;21.20;54.06;99706.91;5093359;28;20055;-73
2021/05/13 07:48:10;;;;;;;2.65;1.67;;;;;;;21.54;51.00;99703.47;5084979;28;20020;-73
2021/05/13 07:50:35;;;;;;;4.07;1.88;;;;;;;21.66;46.11;99700.69;5073940;28;20050;-73
2021/05/13 07:53:01;;;;;;;4.20;1.98;;;;;;;22.22;48.54;99705.06;5092053;28;20032;-73
2021/05/13 07:55:26;;;;;;;6.53;2.90;;;;;;;22.38;45.38;99699.88;5073660;28;20046;-73
2021/05/13 07:57:51;;;;;;;4.30;2.30;;;;;;;22.22;46.07;99697.00;5066970;28;20528;-73
2021/05/13 08:00:17;;;;;;;4.20;2.33;;;;;;;21.85;47.26;99702.06;5090228;28;20036;-73
2021/05/13 08:02:43;;;;;;;3.58;1.90;;;;;;;22.16;45.72;99694.44;5084844;28;20058;-73
2021/05/13 08:05:09;;;;;;;4.10;1.98;;;;;;;22.37;46.94;99700.94;5072366;28;20028;-73
2021/05/13 08:07:35;;;;;;;3.42;1.70;;;;;;;22.75;46.50;99696.56;5089892;28;20515;-73
2021/05/13 08:10:00;;;;;;;4.68;2.20;;;;;;;23.50;42.04;99697.56;5094207;28;20064;-73
2021/05/13 08:12:26;;;;;;;3.88;2.10;;;;;;;23.22;42.30;99687.91;5091092;28;20282;-73
2021/05/13 08:14:52;;;;;;;3.40;1.80;;;;;;;23.41;41.25;99691.84;5091463;28;20040;-73
2021/05/13 08:17:17;;;;;;;4.32;1.90;;;;;;;22.96;42.18;99692.22;5069727;28;20170;-72
2021/05/13 08:19:42;;;;;;;4.50;2.08;;;;;;;23.14;40.70;99691.06;5090024;28;20035;-72
2021/05/13 08:22:08;;;;;;;3.65;2.30;;;;;;;23.81;41.54;99695.13;5070953;28;20063;-73
2021/05/13 08:24:33;;;;;;;4.57;2.13;;;;;;;23.50;39.09;99693.00;5092251;28;20456;-72
2021/05/13 08:27:01;;;;;;;7.03;2.53;;;;;;;24.00;39.66;99698.25;5091325;28;20503;-72
2021/05/13 08:29:27;;;;;;;4.10;2.08;;;;;;;23.57;40.23;99694.66;5091318;28;20036;-72
2021/05/13 08:31:53;;;;;;;3.50;1.60;;;;;;;23.78;41.91;99692.97;5075394;28;20024;-73
2021/05/13 08:34:18;;;;;;;3.38;1.55;;;;;;;24.13;40.35;99684.28;5088945;28;20043;-73
2021/05/13 08:36:43;;;;;;;4.15;1.80;;;;;;;24.58;40.13;99686.41;5088286;28;20039;-73
2021/05/13 08:39:09;;;;;;;4.25;1.73;;;;;;;25.15;38.46;99684.66;5089067;28;20085;-72
2021/05/13 08:41:36;;;;;;;3.33;1.85;;;;;;;24.90;37.88;99693.50;5080109;28;20110;-73
2021/05/13 08:44:01;;;;;;;3.00;1.50;;;;;;;25.14;36.08;99687.63;5069058;28;20033;-72
2021/05/13 08:46:27;;;;;;;4.78;1.65;;;;;;;25.24;37.85;99684.94;5092324;28;20040;-72
2021/05/13 08:48:52;;;;;;;2.75;1.45;;;;;;;24.97;37.63;99683.25;5083617;28;20036;-72
2021/05/13 08:51:18;;;;;;;2.90;1.60;;;;;;;25.91;37.46;99685.78;5070862;28;20575;-72
2021/05/13 08:53:48;;;;;;;2.80;1.52;;;;;;;25.96;37.65;99680.34;5089470;28;20102;-72
2021/05/13 08:56:14;;;;;;;3.97;1.50;;;;;;;25.90;36.41;99680.63;5084481;28;20035;-72
2021/05/13 08:58:41;;;;;;;3.47;1.75;;;;;;;25.29;36.67;99684.13;5093220;28;20040;-72
2021/05/13 09:01:06;;;;;;;5.22;1.50;;;;;;;24.44;38.46;99676.31;5079720;28;20040;-72
2021/05/13 09:03:32;;;;;;;3.13;1.60;;;;;;;24.96;38.32;99675.44;5077492;28;20571;-72
2021/05/13 09:05:58;;;;;;;2.90;1.58;;;;;;;24.98;37.56;99678.69;5095601;28;20035;-72
2021/05/13 09:08:24;;;;;;;4.43;1.60;;;;;;;23.59;38.52;99665.53;5068214;28;20364;-72
2021/05/13 09:10:50;;;;;;;4.10;1.48;;;;;;;23.93;38.85;99666.06;5072393;28;20024;-72
2021/05/13 09:13:26;;;;;;;3.70;1.30;;;;;;;24.06;40.16;99665.59;5096063;28;20040;-72
2021/05/13 09:15:51;;;;;;;2.65;1.30;;;;;;;24.14;39.56;99661.59;5093039;28;20387;-72
2021/05/13 09:18:29;;;;;;;3.80;1.70;;;;;;;24.54;38.00;99650.16;5077866;28;20036;-72
2021/05/13 09:21:04;;;;;;;3.55;1.45;;;;;;;24.10;37.93;99649.69;5091997;28;20551;-72
2021/05/13 09:23:29;;;;;;;1.95;1.00;;;;;;;23.56;38.23;99645.28;5094925;28;20028;-72
2021/05/13 09:26:12;;;;;;;2.72;1.40;;;;;;;23.78;39.87;99644.38;5088082;28;20531;-72
2021/05/13 09:28:39;;;;;;;2.17;1.35;;;;;;;22.90;39.61;99638.22;5089909;28;20059;-72
2021/05/13 09:31:05;;;;;;;2.97;1.10;;;;;;;23.25;39.21;99630.75;5077140;28;20500;-73
2021/05/13 09:33:34;;;;;;;3.05;1.13;;;;;;;23.62;40.09;99632.63;5094658;28;20071;-72
2021/05/13 09:36:21;;;;;;;4.13;1.40;;;;;;;23.87;37.04;99638.22;5094567;28;20031;-72
2021/05/13 09:38:47;;;;;;;2.92;1.30;;;;;;;23.79;37.97;99637.88;5090232;28;20054;-73
2021/05/13 09:41:29;;;;;;;2.65;1.10;;;;;;;23.46;38.88;99646.03;5085710;28;20579;-73
2021/05/13 09:43:55;;;;;;;4.80;1.52;;;;;;;22.84;37.74;99627.66;5094473;28;20028;-72
2021/05/13 09:46:36;;;;;;;2.45;1.20;;;;;;;22.50;38.58;99621.63;5090600;28;20123;-72
2021/05/13 09:49:03;;;;;;;3.00;1.00;;;;;;;22.77;38.12;99619.78;5089469;28;20089;-72
2021/05/13 09:51:36;;;;;;;2.50;1.25;;;;;;;22.78;37.46;99623.28;5092639;28;20488;-72
2021/05/13 09:54:17;;;;;;;2.78;1.00;;;;;;;22.67;39.24;99625.06;5093761;28;20032;-71
2021/05/13 09:56:46;;;;;;;3.00;1.00;;;;;;;22.79;39.74;99616.84;5091871;28;20086;-73
2021/05/13 09:59:22;;;;;;;2.67;1.10;;;;;;;22.57;39.95;99616.84;5092607;28;20092;-72
2021/05/13 10:01:49;;;;;;;6.13;1.30;;;;;;;22.80;37.25;99613.84;5093651;28;20089;-71
2021/05/13 10:04:14;;;;;;;4.15;1.25;;;;;;;22.51;38.19;99613.31;5093045;28;20028;-71
2021/05/13 10:06:40;;;;;;;4.35;1.30;;;;;;;22.72;37.73;99608.13;5094646;28;20219;-72
2021/05/13 10:09:05;;;;;;;5.55;1.55;;;;;;;22.78;37.77;99607.91;5087717;28;20452;-71
2021/05/13 10:11:31;;;;;;;3.55;1.30;;;;;;;22.62;38.60;99601.56;5073936;28;20032;-71
2021/05/13 10:13:57;;;;;;;3.10;1.30;;;;;;;22.82;37.19;99598.25;5080765;28;20029;-72
2021/05/13 10:16:24;;;;;;;3.80;1.30;;;;;;;22.52;35.89;99593.34;5088841;28;20118;-72
2021/05/13 10:19:25;;;;;;;5.47;1.58;;;;;;;22.26;37.30;99586.88;5075996;28;20059;-71
2021/05/13 10:21:53;;;;;;;4.20;1.45;;;;;;;22.34;38.21;99580.25;5089161;28;20050;-72
2021/05/13 10:24:18;;;;;;;3.60;1.33;;;;;;;22.29;39.88;99575.63;5075050;28;20047;-72
2021/05/13 10:26:46;;;;;;;3.40;1.58;;;;;;;22.33;39.12;99584.81;5070737;28;20040;-72
2021/05/13 10:29:21;;;;;;;3.17;1.10;;;;;;;22.11;39.92;99581.28;5092775;28;20048;-72
2021/05/13 10:31:47;;;;;;;2.67;1.10;;;;;;;22.31;37.89;99578.03;5088113;28;20046;-72
2021/05/13 10:34:13;;;;;;;2.70;1.15;;;;;;;21.96;37.79;99582.72;5091234;28;20032;-72
2021/05/13 10:36:38;;;;;;;3.42;1.50;;;;;;;21.84;37.89;99569.38;5091927;28;20043;-72
2021/05/13 10:39:09;;;;;;;5.18;1.23;;;;;;;21.43;39.34;99570.72;5093502;28;20043;-72
2021/05/13 10:41:41;;;;;;;2.65;1.30;;;;;;;21.55;37.05;99573.31;5091896;28;20024;-72
2021/05/13 10:44:09;;;;;;;2.47;1.13;;;;;;;21.95;35.00;99562.28;5092033;28;20032;-72
2021/05/13 10:46:35;;;;;;;3.75;1.20;;;;;;;21.87;35.33;99564.56;5066925;28;20374;-72
2021/05/13 10:49:16;;;;;;;4.57;1.50;;;;;;;22.04;35.31;99576.09;5092508;28;20512;-72
2021/05/13 10:51:43;;;;;;;;;;;;;;;21.71;37.06;99568.94;5075238;28;20028;-72
2021/05/13 10:54:08;;;;;;;2.63;1.20;;;;;;;21.62;36.13;99563.19;5092392;28;19920;-72
2021/05/13 10:56:36;;;;;;;3.42;1.10;;;;;;;21.80;35.49;99567.44;5089954;28;20032;-72
2021/05/13 10:59:07;;;;;;;3.10;1.00;;;;;;;21.83;36.17;99559.69;5084498;28;20055;-72
2021/05/13 11:01:46;;;;;;;3.25;1.20;;;;;;;21.92;35.65;99557.38;5088866;28;20024;-72
2021/05/13 11:04:24;;;;;;;3.17;1.10;;;;;;;22.11;33.84;99560.56;5090903;28;20070;-71
2021/05/13 11:06:58;;;;;;;2.08;0.80;;;;;;;21.71;36.84;99555.47;5083954;28;20082;-71
2021/05/13 11:09:39;;;;;;;2.20;0.90;;;;;;;21.97;33.69;99549.34;5087382;28;20452;-72
2021/05/13 11:12:16;;;;;;;2.28;0.88;;;;;;;21.77;34.78;99544.53;5086428;28;20063;-72
2021/05/13 11:14:56;;;;;;;3.63;1.25;;;;;;;22.11;33.81;99551.69;5086455;28;20036;-72
2021/05/13 11:17:52;;;;;;;3.97;1.10;;;;;;;22.27;34.10;99548.94;5092939;28;20041;-71
2021/05/13 11:20:25;;;;;;;2.33;0.80;;;;;;;22.45;32.71;99546.94;5082149;28;20036;-72
2021/05/13 11:22:53;;;;;;;3.83;1.08;;;;;;;22.26;33.39;99544.63;5091129;28;20054;-71
2021/05/13 11:25:18;;;;;;;2.83;1.00;;;;;;;22.46;33.97;99537.81;5092409;28;20040;-71
2021/05/13 11:27:43;;;;;;;4.13;1.17;;;;;;;22.08;36.58;99539.53;5092221;28;20081;-71
2021/05/13 11:30:09;;;;;;;4.78;2.28;;;;;;;21.61;37.92;99540.81;5089689;28;20028;-71
2021/05/13 11:32:36;;;;;;;3.10;1.23;;;;;;;21.09;39.48;99537.63;5071021;28;20495;-71
2021/05/13 11:35:02;;;;;;;4.38;1.00;;;;;;;21.12;40.07;99540.63;5086926;28;20047;-72
2021/05/13 11:37:36;;;;;;;3.85;1.10;;;;;;;20.72;42.32;99530.03;5085812;28;20079;-71
2021/05/13 11:40:22;;;;;;;2.90;1.42;;;;;;;20.31;44.88;99542.72;5086289;28;20039;-72
2021/05/13 11:42:48;;;;;;;2.65;1.13;;;;;;;20.28;43.47;99548.53;5090197;28;20036;-71
2021/05/13 11:45:19;;;;;;;3.78;1.30;;;;;;;19.89;45.11;99548.31;5090976;28;20032;-71